createdAt,value
2022-11-04T04:55:44.735Z,12.36
2022-11-04T04:58:47.135Z,12.36
2022-11-04T05:01:49.564Z,11.96
2022-11-04T05:04:51.983Z,11.96
2022-11-04T05:07:54.027Z,11.92
2022-11-04T05:10:56.339Z,11.88
2022-11-04T05:13:58.543Z,11.88
2022-11-04T05:17:00.839Z,12.00
2022-11-04T05:20:03.053Z,11.99
2022-11-04T05:23:05.330Z,11.96
2022-11-04T05:26:07.538Z,11.98
2022-11-04T05:29:10.485Z,12.01
2022-11-04T05:32:12.596Z,12.04
2022-11-04T05:35:14.955Z,11.84
2022-11-04T05:38:17.013Z,11.88
2022-11-04T05:41:25.665Z,11.98
2022-11-04T05:44:27.958Z,12.01
2022-11-04T05:47:30.241Z,11.98
2022-11-04T05:50:33.331Z,12.01
2022-11-04T05:53:35.620Z,11.97
2022-11-04T05:56:37.799Z,11.91
2022-11-04T05:59:40.163Z,11.75
2022-11-04T06:02:42.290Z,11.77
2022-11-04T06:05:44.647Z,11.86
2022-11-04T06:08:46.693Z,11.87
2022-11-04T06:11:49.176Z,11.87
2022-11-04T06:14:51.279Z,11.86
2022-11-04T06:17:53.563Z,11.98
2022-11-04T06:21:13.800Z,12.01
2022-11-04T06:24:16.087Z,12.01
2022-11-04T06:27:18.186Z,11.90
2022-11-04T06:30:21.277Z,11.89
2022-11-04T06:33:23.484Z,11.93
2022-11-04T06:36:25.828Z,11.96
2022-11-04T06:39:27.938Z,11.97
2022-11-04T06:42:30.291Z,11.94
2022-11-04T06:45:32.307Z,11.84
2022-11-04T06:48:34.739Z,11.74
2022-11-04T06:51:36.789Z,11.68
2022-11-04T06:54:39.636Z,11.80
2022-11-04T06:57:41.770Z,11.86
2022-11-04T07:00:44.331Z,11.87
2022-11-04T07:03:55.348Z,11.90
2022-11-04T07:06:57.659Z,11.90
2022-11-04T07:09:59.683Z,11.89
2022-11-04T07:13:02.006Z,11.84
2022-11-04T07:16:06.165Z,11.90
2022-11-04T07:19:08.530Z,11.91
2022-11-04T07:22:10.667Z,11.76
2022-11-04T07:25:12.988Z,11.62
2022-11-04T07:28:15.228Z,11.69
2022-11-04T07:31:18.115Z,11.85
2022-11-04T07:34:20.165Z,11.88
2022-11-04T07:37:22.502Z,11.89
2022-11-04T07:40:24.523Z,11.87
2022-11-04T07:43:27.603Z,11.81
2022-11-04T07:46:29.658Z,11.82
2022-11-04T07:49:32.033Z,11.90
2022-11-04T07:52:34.163Z,11.90
2022-11-04T07:55:43.326Z,11.77
2022-11-04T07:58:45.801Z,11.83
2022-11-04T08:01:48.198Z,11.85
2022-11-04T08:16:52.876Z,11.74
2022-11-04T08:19:55.502Z,11.72
2022-11-04T08:22:57.531Z,11.63
2022-11-04T08:26:00.529Z,11.74
2022-11-04T08:29:07.877Z,11.69
2022-11-04T08:32:10.180Z,11.82
2022-11-04T08:35:12.285Z,11.93
2022-11-04T08:38:14.604Z,11.83
2022-11-04T08:41:19.854Z,11.90
2022-11-04T08:44:22.351Z,11.68
2022-11-04T08:47:24.388Z,11.66
2022-11-04T08:50:27.855Z,11.77
2022-11-04T08:53:30.041Z,11.73
2022-11-04T08:56:35.975Z,11.78
2022-11-04T08:59:38.035Z,11.61
2022-11-04T09:02:40.329Z,11.64
2022-11-04T09:05:47.291Z,11.83
2022-11-04T09:08:50.960Z,11.82
2022-11-04T09:11:53.879Z,11.67
2022-11-04T09:14:56.210Z,11.67
2022-11-04T09:17:58.231Z,11.77
2022-11-04T09:21:02.285Z,11.80
2022-11-04T09:24:05.012Z,11.68
2022-11-04T09:27:07.449Z,11.61
2022-11-04T09:30:10.256Z,11.62
2022-11-04T09:33:12.608Z,11.58
2022-11-04T09:36:14.652Z,11.78
2022-11-04T09:39:17.564Z,11.85
2022-11-04T09:42:46.916Z,11.83
2022-11-04T09:45:49.788Z,11.75
2022-11-04T09:48:55.181Z,11.73
2022-11-04T09:51:59.390Z,11.68
2022-11-04T09:55:11.331Z,11.70
2022-11-04T09:58:14.749Z,11.71
2022-11-04T10:01:28.219Z,11.71
2022-11-04T10:04:58.912Z,11.75
2022-11-04T10:08:03.829Z,11.72
2022-11-04T10:11:26.142Z,11.75
2022-11-04T10:14:53.042Z,11.84
2022-11-04T10:17:58.239Z,11.89
2022-11-04T10:21:21.442Z,11.77
2022-11-04T10:24:41.324Z,11.68
2022-11-04T10:27:46.802Z,11.66
2022-11-04T10:30:51.820Z,11.55
2022-11-04T10:34:04.121Z,11.57
2022-11-04T10:37:11.394Z,11.68
2022-11-04T10:40:27.028Z,11.56
2022-11-04T10:43:41.405Z,11.52
2022-11-04T10:47:27.883Z,11.52
2022-11-04T10:50:46.266Z,11.55
2022-11-04T10:53:55.281Z,11.64
2022-11-04T10:56:58.333Z,11.65
2022-11-04T11:00:05.221Z,11.69
2022-11-04T11:03:28.949Z,11.68
2022-11-04T11:06:33.419Z,11.66
2022-11-04T11:10:01.493Z,11.76
2022-11-04T11:13:07.478Z,11.71
2022-11-04T11:16:17.156Z,11.73
2022-11-04T11:19:22.046Z,11.90
2022-11-04T11:22:33.841Z,11.89
2022-11-04T11:25:42.284Z,11.87
2022-11-04T11:28:59.177Z,11.90
2022-11-04T11:32:01.594Z,11.99
2022-11-04T11:35:10.725Z,12.02
2022-11-04T11:38:28.681Z,12.01
2022-11-04T11:41:33.520Z,12.01
2022-11-04T11:44:47.828Z,12.08
2022-11-04T11:47:54.851Z,12.06
2022-11-04T11:50:58.770Z,12.16
2022-11-04T11:54:17.711Z,12.18
2022-11-04T11:57:35.926Z,12.19
2022-11-04T12:01:10.091Z,12.22
2022-11-04T12:11:33.083Z,12.14
2022-11-04T12:14:43.581Z,12.29
2022-11-04T12:18:00.417Z,12.23
2022-11-04T12:21:21.586Z,12.27
2022-11-04T12:24:42.482Z,12.21
2022-11-04T12:27:58.952Z,12.31
2022-11-04T12:31:16.289Z,12.33
2022-11-04T12:34:49.095Z,12.31
2022-11-04T12:38:27.975Z,12.37
2022-11-04T12:41:58.762Z,12.46
2022-11-04T12:45:18.555Z,12.52
2022-11-04T12:48:56.883Z,12.52
2022-11-04T12:52:37.335Z,12.68
2022-11-04T12:55:52.091Z,12.53
2022-11-04T12:59:19.406Z,12.50
2022-11-04T13:02:31.581Z,12.54
2022-11-04T13:05:51.661Z,12.55
2022-11-04T13:09:02.583Z,12.60
2022-11-04T13:12:31.622Z,12.76
2022-11-04T13:15:43.197Z,12.69
2022-11-04T13:18:47.841Z,12.64
2022-11-04T13:21:50.436Z,12.65
2022-11-04T13:24:59.241Z,12.75
2022-11-04T13:28:02.991Z,12.76
2022-11-04T13:31:34.048Z,12.72
2022-11-04T13:34:55.263Z,12.81
2022-11-04T13:38:00.167Z,12.79
2022-11-04T13:41:21.764Z,12.81
2022-11-04T13:44:31.835Z,12.73
2022-11-04T13:47:48.472Z,12.80
2022-11-04T13:51:00.831Z,12.80
2022-11-04T13:54:03.825Z,12.86
2022-11-04T13:57:16.616Z,12.92
2022-11-04T14:00:24.336Z,12.91
2022-11-04T14:03:26.544Z,12.89
2022-11-04T14:07:03.716Z,12.85
2022-11-04T14:10:45.762Z,12.85
2022-11-04T14:14:04.761Z,12.85
2022-11-04T14:17:35.226Z,12.86
2022-11-04T14:20:37.259Z,12.78
2022-11-04T14:23:42.097Z,12.57
2022-11-04T14:26:46.576Z,12.75
2022-11-04T14:29:52.183Z,12.66
2022-11-04T14:32:59.458Z,12.64
2022-11-04T14:36:22.010Z,12.63
2022-11-04T14:39:28.582Z,12.67
2022-11-04T14:42:48.732Z,12.68
2022-11-04T14:45:51.069Z,12.78
2022-11-04T14:48:57.046Z,12.73
2022-11-04T14:51:59.256Z,12.78
2022-11-04T14:55:10.938Z,12.82
2022-11-04T14:58:25.174Z,13.04
2022-11-04T15:01:34.638Z,12.98
2022-11-04T15:04:37.454Z,13.07
2022-11-04T15:07:40.540Z,13.02
2022-11-04T15:10:42.583Z,12.99
2022-11-04T15:13:51.661Z,12.92
2022-11-04T15:16:57.119Z,12.88
2022-11-04T15:20:02.093Z,12.89
2022-11-04T15:23:08.207Z,12.83
2022-11-04T15:26:30.129Z,12.84
2022-11-04T15:29:33.357Z,12.81
2022-11-04T15:32:35.742Z,12.81
2022-11-04T15:35:43.337Z,12.91
2022-11-04T15:38:50.311Z,12.92
2022-11-04T15:42:16.165Z,12.82
2022-11-04T15:45:39.122Z,12.81
2022-11-04T15:48:41.254Z,12.82
2022-11-04T15:51:43.616Z,12.77
2022-11-04T15:54:48.481Z,12.72
2022-11-04T15:57:51.720Z,12.79
2022-11-04T16:00:55.774Z,12.83
2022-11-04T16:04:00.965Z,12.83
2022-11-04T16:07:23.318Z,12.84
2022-11-04T16:10:25.756Z,12.76
2022-11-04T16:13:27.827Z,12.76
2022-11-04T16:16:30.189Z,12.85
2022-11-04T16:19:32.296Z,12.75
2022-11-04T16:22:38.829Z,12.74
2022-11-04T16:25:40.916Z,12.78
2022-11-04T16:28:43.468Z,12.75
2022-11-04T16:31:45.748Z,12.79
2022-11-04T16:34:52.776Z,12.84
2022-11-04T16:37:56.152Z,12.77
